Time;durP1;ratioP1;P1;durP2;ratioP2;P2;SDS_P1;SDS_P2;PMS_P1;PMS_P2;Temp;Humidity;BMP_temperature;BMP_pressure;BME280_temperature;BME280_humidity;BME280_pressure;Samples;Min_cycle;Max_cycle;Signal;HPM_P1;HPM_P2
2022/03/13 00:00:13;;;;;;;;;;;;;;;8.01;51.39;101183.47;5051692;28;20015;-80
2022/03/13 00:02:40;;;;;;;;;;;;;;;7.87;52.17;101182.66;5047573;28;19975;-80
2022/03/13 00:05:06;;;;;;;;;;;;;;;7.89;51.90;101191.28;5057519;28;20011;-80
2022/03/13 00:07:34;;;;;;;;;;;;;;;7.82;51.43;101182.66;5048577;28;19921;-80
2022/03/13 00:09:59;;;;;;;;;;;;;;;8.05;51.12;101183.47;5047394;28;19991;-80
2022/03/13 00:12:29;;;;;;;;;;;;;;;7.80;51.27;101181.81;5051432;28;20409;-80
2022/03/13 00:14:59;;;;;;;;;;;;;;;7.85;51.78;101190.41;5055457;28;19920;-80
2022/03/13 00:17:27;;;;;;;;;;;;;;;7.78;52.41;101187.88;5057214;28;20038;-80
2022/03/13 00:19:53;;;;;;;;;;;;;;;7.86;51.20;101168.88;5053692;28;19921;-80
2022/03/13 00:22:18;;;;;;;;;;;;;;;7.73;51.41;101176.69;5032108;28;20305;-80
2022/03/13 00:24:44;;;;;;;;;;;;;;;7.86;51.60;101173.19;5047704;28;19921;-80
2022/03/13 00:27:09;;;;;;;;;;;;;;;7.81;51.50;101164.59;5068647;28;19921;-79
2022/03/13 00:29:36;;;;;;;;;;;;;;;7.59;51.70;101168.94;5047005;28;19968;-80
2022/03/13 00:32:03;;;;;;;;;;;;;;;7.79;51.12;101166.31;5046548;28;20004;-80
2022/03/13 00:34:28;;;;;;;;;;;;;;;7.80;50.75;101157.69;5042787;28;20015;-80
2022/03/13 00:36:53;;;;;;;;;;;;;;;7.84;51.29;101156.81;5054025;28;20354;-79
2022/03/13 00:39:19;;;;;;;;;;;;;;;7.86;51.04;101155.06;5060829;28;20453;-79
2022/03/13 00:41:46;;;;;;;;;;;;;;;7.76;51.80;101162.00;5059110;28;19925;-75
2022/03/13 00:44:12;;;;;;;;;;;;;;;7.67;51.30;101169.81;5049336;28;19975;-75
2022/03/13 00:46:37;;;;;;;;;;;;;;;7.59;51.53;101161.19;5063513;28;20300;-75
2022/03/13 00:49:03;;;;;;;;;;;;;;;7.31;52.74;101157.81;5064081;28;19927;-75
2022/03/13 00:51:28;;;;;;;;;;;;;;;7.53;51.97;101162.06;5065576;28;20380;-75
2022/03/13 00:53:53;;;;;;;;;;;;;;;7.49;52.40;101162.97;5038644;28;19932;-75
2022/03/13 00:56:19;;;;;;;;;;;;;;;7.36;51.71;101157.81;5044812;28;19954;-77
2022/03/13 00:58:44;;;;;;;;;;;;;;;7.59;52.11;101154.31;5063485;28;19955;-80
2022/03/13 01:01:10;;;;;;;;;;;;;;;7.55;51.90;101151.75;5055151;28;19921;-80
2022/03/13 01:03:35;;;;;;;;;;;;;;;7.62;51.41;101153.44;5040229;28;19924;-76
2022/03/13 01:06:02;;;;;;;;;;;;;;;7.66;51.43;101155.16;5053752;28;20293;-75
2022/03/13 01:08:27;;;;;;;;;;;;;;;7.60;49.73;101162.94;5043559;28;20515;-75
2022/03/13 01:10:53;;;;;;;;;;;;;;;7.55;50.10;101160.34;5047814;28;19924;-75
2022/03/13 01:13:19;;;;;;;;;;;;;;;7.62;50.14;101153.44;5075941;28;19980;-75
2022/03/13 01:15:48;;;;;;;;;;;;;;;7.58;49.76;101151.75;5055004;28;20487;-75
2022/03/13 01:18:14;;;;;;;;;;;;;;;7.66;49.68;101147.41;5043009;28;19924;-75
2022/03/13 01:20:40;;;;;;;;;;;;;;;7.48;49.83;101145.72;5067950;28;20003;-75
2022/03/13 01:23:07;;;;;;;;;;;;;;;7.57;49.88;101145.69;5063244;28;20024;-75
2022/03/13 01:25:33;;;;;;;;;;;;;;;7.39;50.72;101144.88;5057758;28;19921;-76
2022/03/13 01:27:58;;;;;;;;;;;;;;;7.41;50.23;101138.84;5059391;28;19927;-75
2022/03/13 01:30:24;;;;;;;;;;;;;;;7.52;48.83;101137.06;5051698;28;20003;-75
2022/03/13 01:32:51;;;;;;;;;;;;;;;7.41;50.19;101135.38;5056578;28;19957;-75
2022/03/13 01:35:20;;;;;;;;;;;;;;;7.60;49.60;101127.59;5058894;28;19920;-79
2022/03/13 01:37:46;;;;;;;;;;;;;;;7.64;48.84;101124.13;5047929;28;20462;-79
2022/03/13 01:40:12;;;;;;;;;;;;;;;7.47;48.06;101128.47;5053678;28;19964;-75
2022/03/13 01:42:40;;;;;;;;;;;;;;;7.56;49.21;101120.69;5057090;28;19917;-79
2022/03/13 01:45:07;;;;;;;;;;;;;;;7.47;48.19;101114.69;5046680;28;19909;-79
2022/03/13 01:47:32;;;;;;;;;;;;;;;7.34;48.45;101115.59;5050679;28;19924;-75
2022/03/13 01:49:58;;;;;;;;;;;;;;;7.46;48.75;101119.03;5069570;28;19931;-75
2022/03/13 01:52:25;;;;;;;;;;;;;;;7.39;48.25;101116.44;5059788;28;20019;-75
2022/03/13 01:54:51;;;;;;;;;;;;;;;7.57;47.53;101106.06;5060492;28;19921;-75
2022/03/13 01:57:17;;;;;;;;;;;;;;;7.65;48.35;101105.16;5057912;28;19966;-79
2022/03/13 01:59:43;;;;;;;;;;;;;;;7.77;47.49;101099.06;5041358;28;20015;-79
2022/03/13 02:02:08;;;;;;;;;;;;;;;7.83;46.68;101088.72;5062459;28;20047;-80
2022/03/13 02:04:34;;;;;;;;;;;;;;;7.78;47.34;101087.88;5040563;28;19956;-80
2022/03/13 02:06:59;;;;;;;;;;;;;;;7.80;46.88;101085.28;5047166;28;19970;-80
2022/03/13 02:09:26;;;;;;;;;;;;;;;7.76;46.98;101075.81;5036324;28;20509;-80
2022/03/13 02:11:51;;;;;;;;;;;;;;;7.70;47.72;101074.97;5051514;28;20018;-80
2022/03/13 02:14:20;;;;;;;;;;;;;;;7.81;46.81;101069.75;5056149;28;20016;-80
2022/03/13 02:16:46;;;;;;;;;;;;;;;7.92;44.88;101072.28;5054721;28;19990;-80
2022/03/13 02:19:12;;;;;;;;;;;;;;;7.96;44.93;101066.22;5050099;28;20376;-80
2022/03/13 02:21:39;;;;;;;;;;;;;;;8.06;44.14;101060.97;5059782;28;20554;-80
2022/03/13 02:24:07;;;;;;;;;;;;;;;8.03;43.65;101065.31;5045759;28;19923;-79
2022/03/13 02:26:33;;;;;;;;;;;;;;;7.99;43.91;101067.09;5058193;28;19946;-80
2022/03/13 02:28:58;;;;;;;;;;;;;;;8.03;43.15;101062.72;5051384;28;20019;-80
2022/03/13 02:31:26;;;;;;;;;;;;;;;8.05;43.60;101058.41;5051727;28;20386;-80
2022/03/13 02:33:52;;;;;;;;;;;;;;;7.95;43.52;101057.59;5053287;28;20035;-80
2022/03/13 02:36:34;;;;;;;;;;;;;;;7.92;44.77;101049.88;5054084;28;20007;-80
2022/03/13 02:39:00;;;;;;;;;;;;;;;7.89;44.33;101051.59;5045736;28;19929;-80
2022/03/13 02:41:26;;;;;;;;;;;;;;;8.01;44.26;101051.53;5047724;28;19920;-80
2022/03/13 02:43:56;;;;;;;;;;;;;;;7.98;43.17;101043.78;5047744;28;19921;-80
2022/03/13 02:46:22;;;;;;;;;;;;;;;8.02;43.78;101043.78;5041861;28;19975;-80
2022/03/13 02:48:48;;;;;;;;;;;;;;;7.80;43.78;101034.41;5051995;28;19927;-80
2022/03/13 02:51:14;;;;;;;;;;;;;;;7.81;43.03;101037.88;5046777;28;19928;-80
2022/03/13 02:53:40;;;;;;;;;;;;;;;7.92;43.75;101030.88;5055525;28;19920;-80
2022/03/13 02:56:06;;;;;;;;;;;;;;;7.75;43.38;101028.41;5061361;28;19943;-80
2022/03/13 02:58:34;;;;;;;;;;;;;;;7.64;42.73;101027.63;5053470;28;19983;-80
2022/03/13 03:00:59;;;;;;;;;;;;;;;7.85;42.34;101024.06;5044471;28;19921;-80
2022/03/13 03:03:26;;;;;;;;;;;;;;;7.81;43.38;101025.78;5061635;28;19913;-80
2022/03/13 03:05:51;;;;;;;;;;;;;;;7.64;42.44;101023.28;5058035;28;19967;-75
2022/03/13 03:08:17;;;;;;;;;;;;;;;7.78;43.56;101027.53;5047126;28;19921;-75
2022/03/13 03:10:42;;;;;;;;;;;;;;;7.73;42.43;101027.56;5050024;28;19921;-75
2022/03/13 03:13:08;;;;;;;;;;;;;;;7.61;42.87;101033.63;5052502;28;20340;-75
2022/03/13 03:15:33;;;;;;;;;;;;;;;7.50;42.73;101038.00;5067822;28;20316;-75
2022/03/13 03:17:59;;;;;;;;;;;;;;;7.39;42.83;101047.53;5036503;28;19963;-75
2022/03/13 03:20:24;;;;;;;;;;;;;;;7.42;42.90;101044.06;5052464;28;19932;-75
2022/03/13 03:22:51;;;;;;;;;;;;;;;7.57;43.09;101041.44;5061775;28;19994;-76
2022/03/13 03:25:20;;;;;;;;;;;;;;;7.60;42.62;101034.53;5051171;28;19967;-75
2022/03/13 03:27:45;;;;;;;;;;;;;;;7.17;43.31;101039.88;5042771;28;19916;-79
2022/03/13 03:30:11;;;;;;;;;;;;;;;7.23;43.26;101037.25;5064565;28;19943;-79
2022/03/13 03:32:36;;;;;;;;;;;;;;;7.43;43.99;101033.75;5053730;28;19927;-79
2022/03/13 03:35:01;;;;;;;;;;;;;;;7.35;43.48;101035.47;5058271;28;19929;-79
2022/03/13 03:37:31;;;;;;;;;;;;;;;7.39;43.62;101041.50;5061404;28;19967;-79
2022/03/13 03:39:56;;;;;;;;;;;;;;;7.44;43.26;101042.31;5058668;28;20031;-79
2022/03/13 03:42:22;;;;;;;;;;;;;;;7.30;43.24;101044.09;5063198;28;20426;-79
2022/03/13 03:44:47;;;;;;;;;;;;;;;7.28;43.02;101038.09;5052305;28;19955;-79
2022/03/13 03:47:12;;;;;;;;;;;;;;;7.23;43.01;101035.50;5056608;28;20180;-79
2022/03/13 03:49:38;;;;;;;;;;;;;;;7.21;43.95;101038.97;5040784;28;20301;-79
2022/03/13 03:52:03;;;;;;;;;;;;;;;7.30;44.21;101049.28;5054569;28;20003;-79
2022/03/13 03:54:29;;;;;;;;;;;;;;;7.19;43.00;101043.28;5058636;28;19916;-79
2022/03/13 03:56:54;;;;;;;;;;;;;;;7.12;43.46;101048.47;5053346;28;19917;-79
2022/03/13 03:59:20;;;;;;;;;;;;;;;7.17;44.53;101052.78;5055009;28;19925;-79
2022/03/13 04:01:45;;;;;;;;;;;;;;;7.03;43.19;101043.31;5064081;28;20381;-79
2022/03/13 04:04:11;;;;;;;;;;;;;;;7.10;42.62;101037.28;5059422;28;20336;-79
2022/03/13 04:06:40;;;;;;;;;;;;;;;7.12;43.74;101037.28;5050335;28;19925;-79
2022/03/13 04:09:09;;;;;;;;;;;;;;;7.19;42.88;101040.72;5052449;28;19921;-80
2022/03/13 04:11:35;;;;;;;;;;;;;;;7.27;42.77;101039.81;5052551;28;20051;-80
2022/03/13 04:14:00;;;;;;;;;;;;;;;7.19;43.13;101043.28;5043870;28;20004;-80
2022/03/13 04:16:25;;;;;;;;;;;;;;;7.26;42.35;101044.97;5047399;28;19924;-80
2022/03/13 04:18:51;;;;;;;;;;;;;;;7.40;43.30;101043.22;5049758;28;19940;-79
2022/03/13 04:21:16;;;;;;;;;;;;;;;7.39;43.22;101036.34;5050749;28;19917;-79
2022/03/13 04:23:41;;;;;;;;;;;;;;;7.55;41.23;101019.91;5051737;28;19923;-79
2022/03/13 04:26:07;;;;;;;;;;;;;;;7.51;41.50;101026.81;5046017;28;19928;-79
2022/03/13 04:28:33;;;;;;;;;;;;;;;7.54;41.92;101029.38;5048492;28;19929;-79
2022/03/13 04:31:00;;;;;;;;;;;;;;;7.48;41.51;101029.41;5050774;28;20050;-76
2022/03/13 04:33:29;;;;;;;;;;;;;;;7.53;41.68;101025.06;5048303;28;19924;-76
2022/03/13 04:35:55;;;;;;;;;;;;;;;7.67;41.76;101027.59;5048416;28;19987;-75
2022/03/13 04:38:21;;;;;;;;;;;;;;;7.52;41.17;101025.91;5048498;28;19920;-75
2022/03/13 04:40:47;;;;;;;;;;;;;;;7.62;40.95;101021.56;5039583;28;20408;-75
2022/03/13 04:43:12;;;;;;;;;;;;;;;7.64;40.56;101025.88;5053156;28;19951;-75
2022/03/13 04:45:37;;;;;;;;;;;;;;;7.66;42.16;101024.16;5044110;28;19917;-75
2022/03/13 04:48:03;;;;;;;;;;;;;;;7.59;40.95;101031.94;5043045;28;19928;-75
2022/03/13 04:50:28;;;;;;;;;;;;;;;7.75;40.23;101028.41;5042003;28;20449;-75
2022/03/13 04:52:54;;;;;;;;;;;;;;;7.68;40.71;101029.31;5044658;28;19933;-79
2022/03/13 04:55:19;;;;;;;;;;;;;;;7.61;41.22;101028.47;5044647;28;19923;-80
2022/03/13 04:57:44;;;;;;;;;;;;;;;7.76;40.89;101026.69;5048397;28;19917;-80
2022/03/13 05:00:10;;;;;;;;;;;;;;;7.79;39.91;101018.91;5053123;28;20289;-79
2022/03/13 05:02:37;;;;;;;;;;;;;;;7.86;39.13;101016.28;5046028;28;19943;-80
2022/03/13 05:05:02;;;;;;;;;;;;;;;7.84;39.53;101037.84;5051779;28;19931;-80
2022/03/13 05:07:28;;;;;;;;;;;;;;;7.74;39.32;101028.41;5057399;28;20416;-80
2022/03/13 05:09:54;;;;;;;;;;;;;;;7.88;40.21;101014.53;5048365;28;20023;-79
2022/03/13 05:12:21;;;;;;;;;;;;;;;7.73;38.89;101017.22;5045537;28;20346;-79
2022/03/13 05:14:47;;;;;;;;;;;;;;;7.60;38.96;101020.72;5067720;28;20408;-79
2022/03/13 05:17:12;;;;;;;;;;;;;;;7.86;39.32;101030.94;5060656;28;19925;-79
2022/03/13 05:19:38;;;;;;;;;;;;;;;7.79;39.32;101029.25;5051788;28;19936;-79
2022/03/13 05:22:04;;;;;;;;;;;;;;;7.76;39.64;101030.09;5051014;28;19924;-79
2022/03/13 05:24:29;;;;;;;;;;;;;;;7.81;39.15;101020.63;5051159;28;19924;-80
2022/03/13 05:26:54;;;;;;;;;;;;;;;7.87;39.44;101018.00;5054347;28;19936;-79
2022/03/13 05:29:20;;;;;;;;;;;;;;;7.92;39.15;101015.38;5038789;28;20303;-79
2022/03/13 05:31:45;;;;;;;;;;;;;;;7.87;39.19;101015.41;5046009;28;20278;-79
2022/03/13 05:34:10;;;;;;;;;;;;;;;7.87;38.43;101018.00;5055665;28;20019;-79
2022/03/13 05:36:36;;;;;;;;;;;;;;;7.81;39.75;101025.78;5047717;28;19932;-79
2022/03/13 05:39:02;;;;;;;;;;;;;;;7.91;39.14;101022.28;5061467;28;19944;-79
2022/03/13 05:41:30;;;;;;;;;;;;;;;7.76;39.46;101030.09;5061931;28;19916;-79
2022/03/13 05:43:55;;;;;;;;;;;;;;;7.79;39.86;101035.25;5052451;28;19961;-80
2022/03/13 05:46:20;;;;;;;;;;;;;;;7.80;39.75;101037.00;5061781;28;19959;-80
2022/03/13 05:48:46;;;;;;;;;;;;;;;7.72;40.14;101025.84;5061574;28;19916;-80
2022/03/13 05:51:11;;;;;;;;;;;;;;;7.81;40.10;101036.13;5052146;28;19921;-79
2022/03/13 05:53:36;;;;;;;;;;;;;;;7.82;40.21;101043.00;5054585;28;19920;-79
2022/03/13 05:56:02;;;;;;;;;;;;;;;7.58;40.49;101038.00;5054133;28;19925;-79
2022/03/13 05:58:27;;;;;;;;;;;;;;;7.61;41.27;101043.16;5053269;28;19960;-79
2022/03/13 06:01:05;;;;;;;;;;;;;;;7.68;40.47;101037.91;5058387;28;20481;-79
2022/03/13 06:03:31;;;;;;;;;;;;;;;7.72;41.26;101043.94;5058521;28;19962;-80
2022/03/13 06:05:57;;;;;;;;;;;;;;;7.76;39.87;101039.63;5053840;28;19928;-80
2022/03/13 06:08:22;;;;;;;;;;;;;;;7.64;41.54;101043.97;5058722;28;19925;-79
2022/03/13 06:10:48;;;;;;;;;;;;;;;7.77;39.89;101033.56;5052667;28;19921;-80
2022/03/13 06:13:14;;;;;;;;;;;;;;;7.88;39.57;101040.38;5054180;28;19921;-80
2022/03/13 06:15:39;;;;;;;;;;;;;;;7.84;40.11;101038.72;5049431;28;20384;-80
2022/03/13 06:18:05;;;;;;;;;;;;;;;7.92;39.07;101039.53;5052630;28;19921;-80
2022/03/13 06:20:30;;;;;;;;;;;;;;;7.82;39.41;101032.66;5050831;28;20031;-80
2022/03/13 06:22:56;;;;;;;;;;;;;;;7.86;40.59;101041.28;5061512;28;20416;-80
2022/03/13 06:25:22;;;;;;;;;;;;;;;7.88;40.46;101042.16;5039524;28;20304;-80
2022/03/13 06:27:47;;;;;;;;;;;;;;;7.86;39.98;101042.13;5071926;28;19927;-80
2022/03/13 06:30:14;;;;;;;;;;;;;;;7.88;40.78;101049.91;5052652;28;20206;-80
2022/03/13 06:32:41;;;;;;;;;;;;;;;7.85;41.65;101048.16;5054437;28;19963;-80
2022/03/13 06:35:06;;;;;;;;;;;;;;;7.79;41.80;101050.78;5055218;28;19959;-80
2022/03/13 06:37:31;;;;;;;;;;;;;;;7.91;40.81;101047.31;5039593;28;19960;-80
2022/03/13 06:39:56;;;;;;;;;;;;;;;8.00;40.46;101042.06;5047389;28;19948;-80
2022/03/13 06:42:22;;;;;;;;;;;;;;;8.07;40.81;101039.44;5052067;28;20304;-80
2022/03/13 06:44:47;;;;;;;;;;;;;;;8.12;40.88;101044.56;5056869;28;19920;-80
2022/03/13 06:47:13;;;;;;;;;;;;;;;8.23;40.69;101038.47;5063595;28;19951;-79
2022/03/13 06:49:39;;;;;;;;;;;;;;;8.19;40.33;101041.06;5056485;28;19921;-80
2022/03/13 06:52:04;;;;;;;;;;;;;;;8.31;39.37;101046.16;5061267;28;19970;-79
2022/03/13 06:54:29;;;;;;;;;;;;;;;8.24;39.44;101042.75;5052792;28;19921;-80
2022/03/13 06:56:55;;;;;;;;;;;;;;;8.36;39.47;101035.78;5049276;28;20347;-80
2022/03/13 06:59:20;;;;;;;;;;;;;;;8.46;38.67;101048.66;5044505;28;19991;-75
2022/03/13 07:01:45;;;;;;;;;;;;;;;8.62;38.23;101045.06;5053545;28;19917;-75
2022/03/13 07:04:12;;;;;;;;;;;;;;;8.44;38.81;101049.56;5050409;28;19955;-75
2022/03/13 07:06:38;;;;;;;;;;;;;;;8.56;39.07;101049.47;5056465;28;19966;-79
2022/03/13 07:09:03;;;;;;;;;;;;;;;8.44;38.92;101044.38;5062172;28;20003;-80
2022/03/13 07:11:30;;;;;;;;;;;;;;;8.42;38.98;101048.69;5060851;28;20004;-79
2022/03/13 07:13:56;;;;;;;;;;;;;;;8.21;40.67;101053.13;5060998;28;19943;-79
2022/03/13 07:16:21;;;;;;;;;;;;;;;8.31;40.27;101063.41;5058577;28;20388;-79
2022/03/13 07:18:46;;;;;;;;;;;;;;;8.24;39.63;101055.69;5061779;28;19925;-79
2022/03/13 07:21:12;;;;;;;;;;;;;;;8.25;40.18;101054.84;5057713;28;20067;-80
2022/03/13 07:23:38;;;;;;;;;;;;;;;8.15;39.94;101060.94;5049554;28;19921;-80
2022/03/13 07:26:03;;;;;;;;;;;;;;;8.24;40.98;101063.44;5049866;28;19964;-80
2022/03/13 07:28:29;;;;;;;;;;;;;;;8.18;40.93;101063.50;5053606;28;20399;-80
2022/03/13 07:30:55;;;;;;;;;;;;;;;8.25;40.88;101065.19;5053305;28;20015;-79
2022/03/13 07:33:20;;;;;;;;;;;;;;;8.30;41.82;101057.38;5043264;28;19933;-79
2022/03/13 07:35:46;;;;;;;;;;;;;;;8.17;42.19;101054.03;5059125;28;19931;-81
2022/03/13 07:38:11;;;;;;;;;;;;;;;8.27;40.97;101059.16;5057682;28;20385;-80
2022/03/13 07:40:37;;;;;;;;;;;;;;;8.33;41.63;101062.56;5055365;28;19979;-82
2022/03/13 07:43:03;;;;;;;;;;;;;;;8.34;41.50;101060.84;5057960;28;19921;-80
2022/03/13 07:45:28;;;;;;;;;;;;;;;8.26;40.53;101063.47;5062018;28;19947;-79
2022/03/13 07:47:55;;;;;;;;;;;;;;;8.31;39.59;101063.41;5059896;28;19928;-80
2022/03/13 07:50:21;;;;;;;;;;;;;;;8.44;39.98;101058.19;5050222;28;20652;-81
2022/03/13 07:52:48;;;;;;;;;;;;;;;8.56;40.03;101059.81;5059394;28;20437;-76
2022/03/13 07:55:17;;;;;;;;;;;;;;;8.49;38.72;101052.97;5040633;28;20313;-76
2022/03/13 07:57:42;;;;;;;;;;;;;;;8.67;38.27;101061.44;5055915;28;19928;-76
2022/03/13 08:00:08;;;;;;;;;;;;;;;8.58;38.99;101056.34;5057286;28;20377;-76
2022/03/13 08:02:36;;;;;;;;;;;;;;;8.70;38.11;101052.78;5045053;28;20385;-76
2022/03/13 08:05:01;;;;;;;;;;;;;;;8.77;38.40;101051.88;5064723;28;19923;-80
2022/03/13 08:07:27;;;;;;;;;;;;;;;8.83;38.25;101056.13;5061999;28;20015;-79
2022/03/13 08:09:52;;;;;;;;;;;;;;;8.74;39.21;101046.72;5051234;28;20368;-80
2022/03/13 08:12:18;;;;;;;;;;;;;;;8.64;39.30;101051.13;5048553;28;19952;-80
2022/03/13 08:14:43;;;;;;;;;;;;;;;8.64;38.74;101040.75;5050677;28;19920;-76
2022/03/13 08:17:08;;;;;;;;;;;;;;;8.75;39.73;101051.88;5052136;28;19928;-80
2022/03/13 08:19:34;;;;;;;;;;;;;;;8.79;37.99;101065.66;5057124;28;19939;-80
2022/03/13 08:21:59;;;;;;;;;;;;;;;8.71;38.72;101070.06;5046815;28;19944;-80
2022/03/13 08:24:24;;;;;;;;;;;;;;;8.66;39.32;101061.44;5050059;28;19994;-80
2022/03/13 08:26:49;;;;;;;;;;;;;;;8.90;37.70;101058.63;5057755;28;19932;-80
2022/03/13 08:29:15;;;;;;;;;;;;;;;8.87;37.79;101055.22;5052425;28;19932;-80
2022/03/13 08:31:41;;;;;;;;;;;;;;;8.97;36.88;101049.94;5048488;28;19925;-80
2022/03/13 08:34:08;;;;;;;;;;;;;;;8.93;37.43;101055.16;5049466;28;20336;-81
2022/03/13 08:36:40;;;;;;;;;;;;;;;8.92;36.83;101056.03;5068733;28;20573;-81
2022/03/13 08:39:06;;;;;;;;;;;;;;;8.99;36.92;101057.69;5051603;28;19924;-76
2022/03/13 08:41:32;;;;;;;;;;;;;;;8.89;36.77;101056.91;5047756;28;19928;-76
2022/03/13 08:43:57;;;;;;;;;;;;;;;9.06;36.68;101054.16;5065676;28;19924;-75
2022/03/13 08:46:23;;;;;;;;;;;;;;;9.05;36.54;101062.81;5061719;28;19929;-75
2022/03/13 08:48:49;;;;;;;;;;;;;;;9.04;36.85;101056.75;5051381;28;20672;-75
2022/03/13 08:51:15;;;;;;;;;;;;;;;9.10;36.40;101050.66;5061774;28;19940;-76
2022/03/13 08:53:41;;;;;;;;;;;;;;;9.15;36.29;101051.47;5031575;28;19968;-75
2022/03/13 08:56:07;;;;;;;;;;;;;;;9.25;35.49;101053.09;5061144;28;19920;-76
2022/03/13 08:58:33;;;;;;;;;;;;;;;9.31;34.61;101046.09;5059375;28;19921;-75
2022/03/13 09:01:00;;;;;;;;;;;;;;;9.42;35.49;101040.81;5047567;28;20015;-75
2022/03/13 09:03:26;;;;;;;;;;;;;;;9.59;35.07;101043.19;5055795;28;20455;-75
2022/03/13 09:05:52;;;;;;;;;;;;;;;9.64;34.66;101033.59;5050471;28;19983;-79
2022/03/13 09:08:17;;;;;;;;;;;;;;;9.69;34.49;101034.41;5049771;28;20374;-80
2022/03/13 09:10:43;;;;;;;;;;;;;;;9.69;34.29;101042.19;5049516;28;19931;-75
2022/03/13 09:13:12;;;;;;;;;;;;;;;9.64;34.78;101036.19;5052896;28;19921;-80
2022/03/13 09:15:39;;;;;;;;;;;;;;;9.74;34.04;101033.47;5052173;28;19919;-80
2022/03/13 09:18:05;;;;;;;;;;;;;;;9.75;34.57;101035.16;5040623;28;19928;-80
2022/03/13 09:20:30;;;;;;;;;;;;;;;9.74;33.63;101036.06;5057078;28;19924;-80
2022/03/13 09:22:55;;;;;;;;;;;;;;;9.75;33.88;101034.34;5052209;28;19975;-80
2022/03/13 09:25:21;;;;;;;;;;;;;;;9.73;33.85;101041.25;5050750;28;20300;-80
2022/03/13 09:27:48;;;;;;;;;;;;;;;9.73;33.71;101033.47;5052976;28;19929;-80
2022/03/13 09:30:13;;;;;;;;;;;;;;;9.76;32.91;101030.84;5050204;28;19920;-80
2022/03/13 09:32:38;;;;;;;;;;;;;;;9.73;32.51;101029.16;5034655;28;20397;-80
2022/03/13 09:35:04;;;;;;;;;;;;;;;9.76;33.84;101031.72;5052348;28;19956;-80
2022/03/13 09:37:30;;;;;;;;;;;;;;;9.82;32.89;101026.44;5051664;28;19925;-80
2022/03/13 09:39:55;;;;;;;;;;;;;;;9.88;32.67;101031.53;5054856;28;19929;-80
2022/03/13 09:42:21;;;;;;;;;;;;;;;9.93;33.12;101022.88;5059318;28;19962;-80
2022/03/13 09:44:46;;;;;;;;;;;;;;;10.01;35.05;101026.22;5054861;28;20581;-82
2022/03/13 09:47:12;;;;;;;;;;;;;;;9.96;34.00;101028.84;5027723;28;20020;-81
2022/03/13 09:49:39;;;;;;;;;;;;;;;10.26;37.14;101024.94;5038903;28;19921;-75
2022/03/13 09:52:05;;;;;;;;;;;;;;;10.05;33.89;101022.72;5049102;28;20286;-75
2022/03/13 09:54:30;;;;;;;;;;;;;;;10.03;33.50;101021.84;5048109;28;19916;-75
2022/03/13 09:56:55;;;;;;;;;;;;;;;9.87;33.12;101010.78;5042198;28;19921;-75
2022/03/13 09:59:21;;;;;;;;;;;;;;;9.89;34.14;101015.16;5057818;28;20373;-75
2022/03/13 10:01:46;;;;;;;;;;;;;;;10.03;33.10;101014.06;5059145;28;19921;-76
2022/03/13 10:04:12;;;;;;;;;;;;;;;10.04;33.85;101011.47;5060471;28;19928;-75
2022/03/13 10:06:57;;;;;;;;;;;;;;;10.14;34.61;101009.56;5054787;28;19917;-76
2022/03/13 10:09:26;;;;;;;;;;;;;;;10.18;33.96;101004.31;5050917;28;19972;-75
2022/03/13 10:12:01;;;;;;;;;;;;;;;10.22;34.06;101008.59;5051992;28;19928;-75
2022/03/13 10:14:27;;;;;;;;;;;;;;;10.15;33.65;100999.16;5049591;28;19928;-75
2022/03/13 10:16:52;;;;;;;;;;;;;;;10.20;34.79;101001.69;5049013;28;20301;-75
2022/03/13 10:19:18;;;;;;;;;;;;;;;10.27;35.16;100998.13;5051047;28;19924;-75
2022/03/13 10:22:19;;;;;;;;;;;;;;;10.22;34.51;101000.81;5056379;28;19963;-76
2022/03/13 10:24:46;;;;;;;;;;;;;;;10.34;35.13;100997.97;5031746;28;19959;-75
2022/03/13 10:27:15;;;;;;;;;;;;;;;10.28;34.50;100997.25;5045714;28;20004;-76
2022/03/13 10:29:42;;;;;;;;;;;;;;;10.27;36.28;100998.97;5052946;28;20023;-75
2022/03/13 10:32:07;;;;;;;;;;;;;;;10.29;35.70;100998.94;5049237;28;19971;-75
2022/03/13 10:34:33;;;;;;;;;;;;;;;10.27;36.14;100998.97;5053644;28;20392;-75
2022/03/13 10:37:01;;;;;;;;;;;;;;;10.44;35.39;100999.56;5046015;28;19928;-75
2022/03/13 10:39:26;;;;;;;;;;;;;;;10.41;35.84;100991.81;5050926;28;20015;-82
2022/03/13 10:41:56;;;;;;;;;;;;;;;10.56;35.02;100990.69;5033668;28;20392;-82
2022/03/13 10:44:22;;;;;;;;;;;;;;;10.54;35.95;100983.81;5051584;28;19916;-82
2022/03/13 10:47:08;;;;;;;;;;;;;;;10.57;36.23;100982.03;5053246;28;19921;-76
2022/03/13 10:49:44;;;;;;;;;;;;;;;10.67;37.13;100972.34;5052052;28;19928;-75
2022/03/13 10:52:25;;;;;;;;;;;;;;;10.64;35.95;100965.44;5052549;28;19920;-75
2022/03/13 10:54:51;;;;;;;;;;;;;;;10.69;36.67;100962.75;5041776;28;21763;-79
2022/03/13 10:57:16;;;;;;;;;;;;;;;10.75;36.32;100968.72;5043562;28;19979;-80
2022/03/13 10:59:42;;;;;;;;;;;;;;;10.72;37.01;100965.31;5054862;28;20347;-80
2022/03/13 11:02:17;;;;;;;;;;;;;;;10.82;36.79;100956.47;5047699;28;19935;-80
2022/03/13 11:04:50;;;;;;;;;;;;;;;10.84;36.27;100958.16;5038254;28;19916;-79
2022/03/13 11:07:16;;;;;;;;;;;;;;;10.86;36.78;100955.50;5053406;28;19921;-80
2022/03/13 11:09:42;;;;;;;;;;;;;;;10.83;37.47;100953.81;5047526;28;19944;-79
2022/03/13 11:12:10;;;;;;;;;;;;;;;10.79;38.40;100964.31;5056021;28;19917;-82
2022/03/13 11:14:36;;;;;;;;;;;;;;;10.82;38.23;100951.28;5051794;28;19921;-82
2022/03/13 11:17:01;;;;;;;;;;;;;;;10.81;37.97;100950.41;5045143;28;20396;-82
2022/03/13 11:19:28;;;;;;;;;;;;;;;10.80;38.47;100958.22;5063601;28;20385;-82
2022/03/13 11:21:54;;;;;;;;;;;;;;;10.85;37.57;100956.41;5057491;28;20577;-82
2022/03/13 11:24:19;;;;;;;;;;;;;;;10.81;38.84;100950.41;5055979;28;19956;-81
2022/03/13 11:26:45;;;;;;;;;;;;;;;10.84;39.24;100959.88;5058020;28;19921;-82
2022/03/13 11:29:10;;;;;;;;;;;;;;;10.88;39.95;100945.91;5056371;28;20393;-82
2022/03/13 11:31:37;;;;;;;;;;;;;;;10.95;39.77;100947.53;5070363;28;19916;-80
2022/03/13 11:34:13;;;;;;;;;;;;;;;10.99;40.27;100944.84;5074203;28;19917;-80
2022/03/13 11:36:41;;;;;;;;;;;;;;;11.06;43.23;100940.38;5043090;28;19928;-79
2022/03/13 11:39:07;;;;;;;;;;;;;;;11.05;41.46;100936.06;5061671;28;20404;-82
2022/03/13 11:41:42;;;;;;;;;;;;;;;11.07;40.46;100920.44;5059043;28;20373;-82
2022/03/13 11:44:16;;;;;;;;;;;;;;;10.98;40.08;100914.53;5065158;28;19927;-82
2022/03/13 11:46:43;;;;;;;;;;;;;;;11.19;40.33;100914.97;5060488;28;20031;-82
2022/03/13 11:49:20;;;;;;;;;;;;;;;11.21;40.90;100910.59;5054999;28;19928;-82
2022/03/13 11:51:46;;;;;;;;;;;;;;;11.21;40.95;100910.59;5054851;28;20031;-82
2022/03/13 11:54:15;;;;;;;;;;;;;;;11.18;39.95;100906.31;5057469;28;20017;-82
2022/03/13 11:56:47;;;;;;;;;;;;;;;11.24;41.79;100895.78;5065687;28;20015;-82
2022/03/13 11:59:14;;;;;;;;;;;;;;;11.28;43.34;100886.22;5044120;28;19944;-82
2022/03/13 12:01:39;;;;;;;;;;;;;;;11.28;39.58;100887.06;5068918;28;19991;-82
2022/03/13 12:04:08;;;;;;;;;;;;;;;11.30;42.14;100895.69;5038850;28;20326;-80
2022/03/13 12:06:52;;;;;;;;;;;;;;;11.33;41.34;100889.56;5057902;28;20010;-79
2022/03/13 12:09:19;;;;;;;;;;;;;;;11.26;40.93;100885.38;5060141;28;20419;-80
2022/03/13 12:11:46;;;;;;;;;;;;;;;11.48;42.38;100881.41;5053132;28;20461;-80
2022/03/13 12:14:15;;;;;;;;;;;;;;;11.47;42.79;100882.31;5053494;28;19924;-80
2022/03/13 12:16:41;;;;;;;;;;;;;;;11.48;41.51;100879.66;5049354;28;19921;-76
2022/03/13 12:19:07;;;;;;;;;;;;;;;11.50;41.23;100872.69;5050327;28;20356;-79
2022/03/13 12:21:33;;;;;;;;;;;;;;;11.54;40.67;100871.72;5050765;28;19920;-79
2022/03/13 12:24:13;;;;;;;;;;;;;;;11.56;40.24;100874.31;5047005;28;19921;-75
2022/03/13 12:26:39;;;;;;;;;;;;;;;11.53;41.42;100874.38;5052246;28;19928;-75
2022/03/13 12:29:05;;;;;;;;;;;;;;;11.56;41.11;100861.31;5048473;28;19975;-82
2022/03/13 12:31:37;;;;;;;;;;;;;;;11.55;40.89;100864.78;5053555;28;19925;-82
2022/03/13 12:34:03;;;;;;;;;;;;;;;11.59;39.89;100855.16;5049539;28;19932;-82
2022/03/13 12:36:36;;;;;;;;;;;;;;;11.57;42.61;100849.97;5056302;28;20309;-82
2022/03/13 12:39:02;;;;;;;;;;;;;;;11.62;39.83;100844.69;5054524;28;20027;-79
2022/03/13 12:41:29;;;;;;;;;;;;;;;11.61;40.22;100838.63;5052657;28;19921;-79